Time,TemperatureF,DewpointF,PressureIn,WindDirection,WindDirectionDegrees,WindSpeedMPH,WindSpeedGustMPH,Humidity,HourlyPrecipIn,Conditions,Clouds,dailyrainin,SoftwareType,DateUTC
2013-09-14 00:04:00,51.0,48.0,30.06,North,1,114.0,114.0,90,0.00,,,0.16,,2013-09-14 04:04:00,
2013-09-14 00:14:00,51.0,48.0,30.06,North,1,114.0,114.0,90,0.00,,,0.16,,2013-09-14 04:14:00,
2013-09-14 00:24:00,51.0,48.0,30.06,North,1,114.0,114.0,90,0.00,,,0.16,,2013-09-14 04:24:00,
2013-09-14 00:43:00,50.0,47.0,30.06,North,1,114.0,114.0,89,0.00,,,0.16,,2013-09-14 04:43:00,
2013-09-14 00:54:00,50.0,47.0,30.06,North,1,114.0,114.0,89,0.00,,,0.16,,2013-09-14 04:54:00,
2013-09-14 01:13:00,50.0,47.0,30.08,North,1,114.0,114.0,89,0.00,,,0.16,,2013-09-14 05:13:00,
2013-09-14 01:22:00,50.0,47.0,30.08,North,1,114.0,114.0,89,0.00,,,0.16,,2013-09-14 05:22:00,
2013-09-14 01:43:00,49.0,46.0,30.08,North,1,114.0,114.0,90,0.00,,,0.16,,2013-09-14 05:43:00,
2013-09-14 01:52:00,49.0,46.0,30.08,North,1,114.0,114.0,90,0.00,,,0.16,,2013-09-14 05:52:00,
2013-09-14 02:22:00,49.0,46.0,30.08,North,1,114.0,114.0,91,0.00,,,0.16,,2013-09-14 06:22:00,
2013-09-14 02:52:00,48.0,45.0,30.08,North,1,114.0,114.0,91,0.00,,,0.16,,2013-09-14 06:52:00,
2013-09-14 03:22:00,47.0,45.0,30.08,North,1,114.0,114.0,91,0.00,,,0.16,,2013-09-14 07:22:00,
2013-09-14 03:52:00,47.0,45.0,30.09,North,1,114.0,114.0,91,0.00,,,0.16,,2013-09-14 07:52:00,
2013-09-14 04:12:00,47.0,45.0,30.09,North,1,114.0,114.0,92,0.00,,,0.16,,2013-09-14 08:12:00,
2013-09-14 04:22:00,47.0,45.0,30.09,North,1,114.0,114.0,92,0.00,,,0.16,,2013-09-14 08:22:00,
2013-09-14 04:52:00,46.0,44.0,30.09,North,1,114.0,114.0,93,0.00,,,0.16,,2013-09-14 08:52:00,
2013-09-14 05:12:00,46.0,44.0,30.08,North,1,114.0,114.0,93,0.00,,,0.16,,2013-09-14 09:12:00,
2013-09-14 05:22:00,46.0,44.0,30.08,North,1,114.0,114.0,93,0.00,,,0.16,,2013-09-14 09:22:00,
2013-09-14 05:53:00,45.0,43.0,30.10,North,1,114.0,114.0,92,0.00,,,0.16,,2013-09-14 09:53:00,
2013-09-14 06:23:00,45.0,43.0,30.10,North,1,114.0,114.0,92,0.00,,,0.16,,2013-09-14 10:23:00,
2013-09-14 06:52:00,44.0,42.0,30.11,North,1,114.0,114.0,93,0.04,,,0.20,,2013-09-14 10:52:00,
2013-09-14 07:22:00,44.0,42.0,30.11,North,1,114.0,114.0,93,0.04,,,0.10,,2013-09-14 11:22:00,
2013-09-14 07:52:00,44.0,42.0,30.11,North,1,114.0,114.0,93,0.00,,,0.04,,2013-09-14 11:52:00,
2013-09-14 08:22:00,44.0,42.0,30.14,North,1,114.0,114.0,94,0.00,,,0.04,,2013-09-14 12:22:00,
2013-09-14 08:52:00,45.0,43.0,30.14,North,1,114.0,114.0,94,0.00,,,0.04,,2013-09-14 12:52:00,
2013-09-14 09:21:00,47.0,45.0,30.14,North,1,114.0,114.0,92,0.00,,,0.04,,2013-09-14 13:21:00,
2013-09-14 09:52:00,48.0,45.0,30.16,North,1,114.0,114.0,91,0.00,,,0.04,,2013-09-14 13:52:00,
2013-09-14 10:22:00,52.0,46.0,30.16,North,1,114.0,114.0,81,0.00,,,0.04,,2013-09-14 14:22:00,
2013-09-14 10:52:00,53.0,47.0,30.16,North,1,114.0,114.0,79,0.00,,,0.04,,2013-09-14 14:52:00,
2013-09-14 11:02:00,53.0,47.0,30.16,North,1,114.0,114.0,79,0.00,,,0.04,,2013-09-14 15:02:00,
2013-09-14 11:22:00,55.0,47.0,30.16,North,1,114.0,114.0,73,0.00,,,0.04,,2013-09-14 15:22:00,
2013-09-14 11:33:00,55.0,47.0,30.16,North,1,114.0,114.0,73,0.00,,,0.04,,2013-09-14 15:33:00,
2013-09-14 11:53:00,55.0,47.0,30.16,North,1,114.0,114.0,73,0.00,,,0.04,,2013-09-14 15:53:00,
2013-09-14 12:23:00,60.0,48.0,30.16,North,1,114.0,114.0,64,0.00,,,0.04,,2013-09-14 16:23:00,
2013-09-14 12:54:00,61.0,47.0,30.16,North,1,114.0,114.0,59,0.00,,,0.04,,2013-09-14 16:54:00,
2013-09-14 13:11:00,62.0,47.0,30.16,North,1,114.0,114.0,57,0.00,,,0.04,,2013-09-14 17:11:00,
2013-09-14 13:24:00,62.0,47.0,30.16,North,1,114.0,114.0,57,0.00,,,0.04,,2013-09-14 17:24:00,
2013-09-14 13:33:00,62.0,47.0,30.16,North,1,114.0,114.0,57,0.00,,,0.04,,2013-09-14 17:33:00,
2013-09-14 13:54:00,63.0,47.0,30.16,North,1,114.0,114.0,55,0.00,,,0.04,,2013-09-14 17:54:00,
2013-09-14 14:22:00,65.0,48.0,30.14,North,1,114.0,114.0,54,0.00,,,0.04,,2013-09-14 18:22:00,
2013-09-14 14:32:00,65.0,48.0,30.14,North,1,114.0,114.0,54,0.00,,,0.04,,2013-09-14 18:32:00,
2013-09-14 14:52:00,65.0,46.0,30.14,North,1,114.0,114.0,50,0.00,,,0.04,,2013-09-14 18:52:00,
2013-09-14 15:11:00,66.0,47.0,30.13,North,1,114.0,114.0,50,0.00,,,0.04,,2013-09-14 19:11:00,
2013-09-14 15:22:00,66.0,47.0,30.13,North,1,114.0,114.0,50,0.00,,,0.04,,2013-09-14 19:22:00,
2013-09-14 15:52:00,67.0,48.0,30.11,North,1,114.0,114.0,50,0.00,,,0.04,,2013-09-14 19:52:00,
2013-09-14 16:22:00,67.0,46.0,30.11,North,1,114.0,114.0,47,0.00,,,0.04,,2013-09-14 20:22:00,
2013-09-14 16:52:00,68.0,47.0,30.11,North,1,114.0,114.0,47,0.00,,,0.04,,2013-09-14 20:52:00,
2013-09-14 17:11:00,68.0,47.0,30.11,North,1,114.0,114.0,47,0.00,,,0.04,,2013-09-14 21:11:00,
2013-09-14 17:22:00,68.0,47.0,30.11,North,1,114.0,114.0,47,0.00,,,0.04,,2013-09-14 21:22:00,
2013-09-14 17:33:00,68.0,47.0,30.11,North,1,114.0,114.0,47,0.00,,,0.04,,2013-09-14 21:33:00,
2013-09-14 17:54:00,67.0,49.0,30.11,North,1,114.0,114.0,52,0.00,,,0.04,,2013-09-14 21:54:00,
2013-09-14 18:24:00,65.0,46.0,30.11,North,1,114.0,114.0,51,0.00,,,0.04,,2013-09-14 22:24:00,
2013-09-14 18:53:00,65.0,46.0,30.10,North,1,114.0,114.0,51,0.00,,,0.04,,2013-09-14 22:53:00,
2013-09-14 19:23:00,64.0,47.0,30.11,North,1,114.0,114.0,53,0.00,,,0.04,,2013-09-14 23:23:00,
2013-09-14 19:53:00,62.0,47.0,30.11,North,1,114.0,114.0,58,0.00,,,0.04,,2013-09-14 23:53:00,
2013-09-14 20:22:00,60.0,46.0,30.11,North,1,114.0,114.0,60,0.00,,,0.04,,2013-09-15 00:22:00,
2013-09-14 20:53:00,59.0,46.0,30.11,North,1,114.0,114.0,61,0.00,,,0.04,,2013-09-15 00:53:00,
2013-09-14 21:22:00,56.0,44.0,30.13,North,1,114.0,114.0,65,0.00,,,0.04,,2013-09-15 01:22:00,
2013-09-14 21:52:00,56.0,44.0,30.13,North,1,114.0,114.0,65,0.00,,,0.04,,2013-09-15 01:52:00,
2013-09-14 22:22:00,54.0,44.0,30.14,North,1,114.0,114.0,70,0.00,,,0.04,,2013-09-15 02:22:00,
2013-09-14 22:32:00,54.0,44.0,30.14,North,1,114.0,114.0,70,0.00,,,0.04,,2013-09-15 02:32:00,
2013-09-14 22:52:00,54.0,44.0,30.14,North,1,114.0,114.0,70,0.00,,,0.04,,2013-09-15 02:52:00,
2013-09-14 23:22:00,52.0,45.0,30.14,North,1,114.0,114.0,78,0.00,,,0.04,,2013-09-15 03:22:00,
2013-09-14 23:55:00,54.0,47.0,30.13,North,1,114.0,114.0,76,0.00,,,0.04,,2013-09-15 03:55:00,